sensor_id;sensor_type;location;lat;lon;timestamp;P1;durP1;ratioP1;P2;durP2;ratioP2
65358;SDS011;52491;45.900;6.346;2023-11-21T00:00:33;1.92;;;1.55;;
65358;SDS011;52491;45.900;6.346;2023-11-21T00:02:59;3.42;;;2.00;;
65358;SDS011;52491;45.900;6.346;2023-11-21T00:05:24;4.00;;;1.92;;
65358;SDS011;52491;45.900;6.346;2023-11-21T00:07:50;3.42;;;2.00;;
65358;SDS011;52491;45.900;6.346;2023-11-21T00:10:16;3.92;;;2.35;;
65358;SDS011;52491;45.900;6.346;2023-11-21T00:12:42;3.40;;;1.98;;
65358;SDS011;52491;45.900;6.346;2023-11-21T00:15:08;4.20;;;2.15;;
65358;SDS011;52491;45.900;6.346;2023-11-21T00:17:37;2.60;;;1.83;;
65358;SDS011;52491;45.900;6.346;2023-11-21T00:20:04;2.22;;;2.00;;
65358;SDS011;52491;45.900;6.346;2023-11-21T00:22:32;1.85;;;1.60;;
65358;SDS011;52491;45.900;6.346;2023-11-21T00:25:01;5.05;;;2.13;;
65358;SDS011;52491;45.900;6.346;2023-11-21T00:27:28;5.25;;;1.83;;
65358;SDS011;52491;45.900;6.346;2023-11-21T00:29:54;4.45;;;2.15;;
65358;SDS011;52491;45.900;6.346;2023-11-21T00:32:20;4.50;;;2.45;;
65358;SDS011;52491;45.900;6.346;2023-11-21T00:34:45;2.28;;;2.08;;
65358;SDS011;52491;45.900;6.346;2023-11-21T00:37:11;3.90;;;1.92;;
65358;SDS011;52491;45.900;6.346;2023-11-21T00:39:36;2.30;;;1.75;;
65358;SDS011;52491;45.900;6.346;2023-11-21T00:42:02;2.75;;;1.80;;
65358;SDS011;52491;45.900;6.346;2023-11-21T00:44:30;2.95;;;1.67;;
65358;SDS011;52491;45.900;6.346;2023-11-21T00:46:55;2.92;;;1.80;;
65358;SDS011;52491;45.900;6.346;2023-11-21T00:49:21;5.15;;;2.13;;
65358;SDS011;52491;45.900;6.346;2023-11-21T00:51:46;2.83;;;1.98;;
65358;SDS011;52491;45.900;6.346;2023-11-21T00:54:12;3.03;;;2.42;;
65358;SDS011;52491;45.900;6.346;2023-11-21T00:56:37;3.15;;;2.25;;
65358;SDS011;52491;45.900;6.346;2023-11-21T00:59:05;3.42;;;2.17;;
65358;SDS011;52491;45.900;6.346;2023-11-21T01:01:30;3.35;;;1.98;;
65358;SDS011;52491;45.900;6.346;2023-11-21T01:03:56;2.53;;;1.90;;
65358;SDS011;52491;45.900;6.346;2023-11-21T01:06:21;2.60;;;1.70;;
65358;SDS011;52491;45.900;6.346;2023-11-21T01:08:47;2.22;;;1.70;;
65358;SDS011;52491;45.900;6.346;2023-11-21T01:11:12;2.33;;;1.77;;
65358;SDS011;52491;45.900;6.346;2023-11-21T01:13:38;4.20;;;1.70;;
65358;SDS011;52491;45.900;6.346;2023-11-21T01:16:05;3.10;;;2.38;;
65358;SDS011;52491;45.900;6.346;2023-11-21T01:18:34;7.38;;;2.83;;
65358;SDS011;52491;45.900;6.346;2023-11-21T01:21:00;3.78;;;2.45;;
65358;SDS011;52491;45.900;6.346;2023-11-21T01:23:26;3.22;;;2.20;;
65358;SDS011;52491;45.900;6.346;2023-11-21T01:25:52;4.00;;;2.13;;
65358;SDS011;52491;45.900;6.346;2023-11-21T01:28:18;4.35;;;1.88;;
65358;SDS011;52491;45.900;6.346;2023-11-21T01:30:44;3.88;;;1.80;;
65358;SDS011;52491;45.900;6.346;2023-11-21T01:33:11;2.33;;;1.70;;
65358;SDS011;52491;45.900;6.346;2023-11-21T01:35:36;1.50;;;1.40;;
65358;SDS011;52491;45.900;6.346;2023-11-21T01:38:02;3.03;;;1.63;;
65358;SDS011;52491;45.900;6.346;2023-11-21T01:40:29;1.90;;;1.58;;
65358;SDS011;52491;45.900;6.346;2023-11-21T01:42:55;2.17;;;1.85;;
65358;SDS011;52491;45.900;6.346;2023-11-21T01:45:21;1.98;;;1.50;;
65358;SDS011;52491;45.900;6.346;2023-11-21T01:47:46;1.88;;;1.67;;
65358;SDS011;52491;45.900;6.346;2023-11-21T01:50:16;1.42;;;1.33;;
65358;SDS011;52491;45.900;6.346;2023-11-21T01:52:43;1.77;;;1.20;;
65358;SDS011;52491;45.900;6.346;2023-11-21T01:55:13;4.28;;;1.67;;
65358;SDS011;52491;45.900;6.346;2023-11-21T01:57:43;2.17;;;1.58;;
65358;SDS011;52491;45.900;6.346;2023-11-21T02:00:09;2.58;;;1.58;;
65358;SDS011;52491;45.900;6.346;2023-11-21T02:02:42;3.72;;;1.98;;
65358;SDS011;52491;45.900;6.346;2023-11-21T02:05:11;3.65;;;2.35;;
65358;SDS011;52491;45.900;6.346;2023-11-21T02:07:39;2.00;;;1.30;;
65358;SDS011;52491;45.900;6.346;2023-11-21T02:10:05;2.15;;;1.27;;
65358;SDS011;52491;45.900;6.346;2023-11-21T02:12:32;1.92;;;1.38;;
65358;SDS011;52491;45.900;6.346;2023-11-21T02:15:00;2.13;;;1.65;;
65358;SDS011;52491;45.900;6.346;2023-11-21T02:17:35;2.83;;;1.60;;
65358;SDS011;52491;45.900;6.346;2023-11-21T02:20:01;2.03;;;1.55;;
65358;SDS011;52491;45.900;6.346;2023-11-21T02:22:28;1.42;;;1.02;;
65358;SDS011;52491;45.900;6.346;2023-11-21T02:24:56;1.17;;;1.05;;
65358;SDS011;52491;45.900;6.346;2023-11-21T02:27:23;3.08;;;1.85;;
65358;SDS011;52491;45.900;6.346;2023-11-21T02:29:49;2.47;;;1.55;;
65358;SDS011;52491;45.900;6.346;2023-11-21T02:32:15;3.05;;;1.50;;
65358;SDS011;52491;45.900;6.346;2023-11-21T02:34:44;3.17;;;1.83;;
65358;SDS011;52491;45.900;6.346;2023-11-21T02:37:09;3.70;;;1.08;;
65358;SDS011;52491;45.900;6.346;2023-11-21T02:39:35;1.45;;;1.17;;
65358;SDS011;52491;45.900;6.346;2023-11-21T02:42:00;2.90;;;1.20;;
65358;SDS011;52491;45.900;6.346;2023-11-21T02:44:26;1.73;;;1.25;;
65358;SDS011;52491;45.900;6.346;2023-11-21T02:46:51;1.65;;;1.00;;
65358;SDS011;52491;45.900;6.346;2023-11-21T02:49:17;1.52;;;1.20;;
65358;SDS011;52491;45.900;6.346;2023-11-21T02:51:42;1.35;;;1.23;;
65358;SDS011;52491;45.900;6.346;2023-11-21T02:54:08;4.07;;;1.38;;
65358;SDS011;52491;45.900;6.346;2023-11-21T02:56:34;1.50;;;1.23;;
65358;SDS011;52491;45.900;6.346;2023-11-21T02:59:00;1.40;;;1.30;;
65358;SDS011;52491;45.900;6.346;2023-11-21T03:01:26;2.55;;;1.40;;
65358;SDS011;52491;45.900;6.346;2023-11-21T03:03:52;1.15;;;1.05;;
65358;SDS011;52491;45.900;6.346;2023-11-21T03:06:21;1.30;;;1.10;;
65358;SDS011;52491;45.900;6.346;2023-11-21T03:08:47;1.45;;;1.20;;
65358;SDS011;52491;45.900;6.346;2023-11-21T03:11:13;1.65;;;1.15;;
65358;SDS011;52491;45.900;6.346;2023-11-21T03:13:42;1.83;;;1.10;;
65358;SDS011;52491;45.900;6.346;2023-11-21T03:16:10;1.50;;;0.93;;
65358;SDS011;52491;45.900;6.346;2023-11-21T03:18:37;1.00;;;0.93;;
65358;SDS011;52491;45.900;6.346;2023-11-21T03:21:03;1.48;;;0.93;;
65358;SDS011;52491;45.900;6.346;2023-11-21T03:23:30;3.00;;;1.15;;
65358;SDS011;52491;45.900;6.346;2023-11-21T03:25:56;0.95;;;0.80;;
65358;SDS011;52491;45.900;6.346;2023-11-21T03:28:21;1.27;;;1.10;;
65358;SDS011;52491;45.900;6.346;2023-11-21T03:30:47;1.58;;;1.08;;
65358;SDS011;52491;45.900;6.346;2023-11-21T03:33:12;1.70;;;1.13;;
65358;SDS011;52491;45.900;6.346;2023-11-21T03:35:38;1.88;;;1.27;;
65358;SDS011;52491;45.900;6.346;2023-11-21T03:38:03;1.50;;;1.02;;
65358;SDS011;52491;45.900;6.346;2023-11-21T03:40:29;2.05;;;1.00;;
65358;SDS011;52491;45.900;6.346;2023-11-21T03:42:56;2.83;;;1.10;;
65358;SDS011;52491;45.900;6.346;2023-11-21T03:45:22;1.55;;;1.15;;
65358;SDS011;52491;45.900;6.346;2023-11-21T03:47:48;2.30;;;0.90;;
65358;SDS011;52491;45.900;6.346;2023-11-21T03:50:13;1.38;;;0.95;;
65358;SDS011;52491;45.900;6.346;2023-11-21T03:52:39;1.45;;;0.90;;
65358;SDS011;52491;45.900;6.346;2023-11-21T03:55:04;0.80;;;0.70;;
65358;SDS011;52491;45.900;6.346;2023-11-21T03:57:30;1.35;;;1.00;;
65358;SDS011;52491;45.900;6.346;2023-11-21T03:59:55;1.20;;;0.80;;
65358;SDS011;52491;45.900;6.346;2023-11-21T04:02:21;3.10;;;1.05;;
65358;SDS011;52491;45.900;6.346;2023-11-21T04:04:46;1.80;;;1.02;;
65358;SDS011;52491;45.900;6.346;2023-11-21T04:07:12;2.10;;;1.00;;
65358;SDS011;52491;45.900;6.346;2023-11-21T04:09:38;1.85;;;0.80;;
65358;SDS011;52491;45.900;6.346;2023-11-21T04:12:04;1.02;;;0.77;;
65358;SDS011;52491;45.900;6.346;2023-11-21T04:14:30;1.13;;;0.93;;
65358;SDS011;52491;45.900;6.346;2023-11-21T04:16:56;0.70;;;0.70;;
65358;SDS011;52491;45.900;6.346;2023-11-21T04:19:22;2.05;;;1.00;;
65358;SDS011;52491;45.900;6.346;2023-11-21T04:21:48;2.10;;;1.02;;
65358;SDS011;52491;45.900;6.346;2023-11-21T04:24:13;1.20;;;0.93;;
65358;SDS011;52491;45.900;6.346;2023-11-21T04:26:39;1.10;;;0.88;;
65358;SDS011;52491;45.900;6.346;2023-11-21T04:29:04;0.55;;;0.40;;
65358;SDS011;52491;45.900;6.346;2023-11-21T04:31:30;1.40;;;0.80;;
65358;SDS011;52491;45.900;6.346;2023-11-21T04:33:55;0.80;;;0.80;;
65358;SDS011;52491;45.900;6.346;2023-11-21T04:36:21;1.00;;;0.80;;
65358;SDS011;52491;45.900;6.346;2023-11-21T04:38:47;3.92;;;1.25;;
65358;SDS011;52491;45.900;6.346;2023-11-21T04:41:12;0.77;;;0.70;;
65358;SDS011;52491;45.900;6.346;2023-11-21T04:43:38;1.50;;;0.82;;
65358;SDS011;52491;45.900;6.346;2023-11-21T04:46:03;2.70;;;1.23;;
65358;SDS011;52491;45.900;6.346;2023-11-21T04:48:29;1.30;;;0.85;;
65358;SDS011;52491;45.900;6.346;2023-11-21T04:50:54;2.67;;;0.93;;
65358;SDS011;52491;45.900;6.346;2023-11-21T04:53:20;1.40;;;1.00;;
65358;SDS011;52491;45.900;6.346;2023-11-21T04:55:45;1.38;;;1.00;;
65358;SDS011;52491;45.900;6.346;2023-11-21T04:58:11;1.58;;;0.90;;
65358;SDS011;52491;45.900;6.346;2023-11-21T05:00:37;1.70;;;0.88;;
65358;SDS011;52491;45.900;6.346;2023-11-21T05:03:03;1.77;;;1.13;;
65358;SDS011;52491;45.900;6.346;2023-11-21T05:05:30;1.95;;;0.98;;
65358;SDS011;52491;45.900;6.346;2023-11-21T05:07:55;1.40;;;0.80;;
65358;SDS011;52491;45.900;6.346;2023-11-21T05:10:21;2.10;;;1.00;;
65358;SDS011;52491;45.900;6.346;2023-11-21T05:12:50;2.45;;;1.10;;
65358;SDS011;52491;45.900;6.346;2023-11-21T05:15:16;1.27;;;0.98;;
65358;SDS011;52491;45.900;6.346;2023-11-21T05:17:42;1.50;;;1.23;;
65358;SDS011;52491;45.900;6.346;2023-11-21T05:20:15;1.25;;;0.80;;
65358;SDS011;52491;45.900;6.346;2023-11-21T05:22:46;2.08;;;1.15;;
65358;SDS011;52491;45.900;6.346;2023-11-21T05:25:14;2.05;;;1.00;;
65358;SDS011;52491;45.900;6.346;2023-11-21T05:27:41;2.45;;;0.77;;
65358;SDS011;52491;45.900;6.346;2023-11-21T05:30:07;1.25;;;0.95;;
65358;SDS011;52491;45.900;6.346;2023-11-21T05:32:37;2.10;;;1.13;;
65358;SDS011;52491;45.900;6.346;2023-11-21T05:35:02;1.80;;;1.35;;
65358;SDS011;52491;45.900;6.346;2023-11-21T05:37:28;4.53;;;0.90;;
65358;SDS011;52491;45.900;6.346;2023-11-21T05:39:55;2.63;;;1.00;;
65358;SDS011;52491;45.900;6.346;2023-11-21T05:42:21;4.85;;;1.40;;
65358;SDS011;52491;45.900;6.346;2023-11-21T05:44:48;1.65;;;1.10;;
65358;SDS011;52491;45.900;6.346;2023-11-21T05:47:14;2.42;;;1.15;;
65358;SDS011;52491;45.900;6.346;2023-11-21T05:49:40;1.08;;;0.95;;
65358;SDS011;52491;45.900;6.346;2023-11-21T05:52:05;1.42;;;1.27;;
65358;SDS011;52491;45.900;6.346;2023-11-21T05:54:31;1.52;;;0.93;;
65358;SDS011;52491;45.900;6.346;2023-11-21T05:56:57;4.13;;;1.30;;
65358;SDS011;52491;45.900;6.346;2023-11-21T05:59:23;3.97;;;1.25;;
65358;SDS011;52491;45.900;6.346;2023-11-21T06:01:49;4.45;;;1.50;;
65358;SDS011;52491;45.900;6.346;2023-11-21T06:04:14;4.82;;;1.63;;
65358;SDS011;52491;45.900;6.346;2023-11-21T06:06:41;5.45;;;2.75;;
65358;SDS011;52491;45.900;6.346;2023-11-21T06:09:07;3.00;;;2.55;;
65358;SDS011;52491;45.900;6.346;2023-11-21T06:11:35;4.72;;;1.77;;
65358;SDS011;52491;45.900;6.346;2023-11-21T06:14:12;6.40;;;2.78;;
65358;SDS011;52491;45.900;6.346;2023-11-21T06:16:40;5.85;;;1.95;;
65358;SDS011;52491;45.900;6.346;2023-11-21T06:19:06;4.90;;;2.45;;
65358;SDS011;52491;45.900;6.346;2023-11-21T06:21:32;5.60;;;2.22;;
65358;SDS011;52491;45.900;6.346;2023-11-21T06:23:58;3.72;;;2.17;;
65358;SDS011;52491;45.900;6.346;2023-11-21T06:26:24;6.25;;;2.13;;
65358;SDS011;52491;45.900;6.346;2023-11-21T06:28:50;5.47;;;2.53;;
65358;SDS011;52491;45.900;6.346;2023-11-21T06:31:16;4.82;;;2.38;;
65358;SDS011;52491;45.900;6.346;2023-11-21T06:33:42;26.52;;;14.15;;
65358;SDS011;52491;45.900;6.346;2023-11-21T06:36:08;11.93;;;5.22;;
65358;SDS011;52491;45.900;6.346;2023-11-21T06:38:36;7.28;;;4.30;;
65358;SDS011;52491;45.900;6.346;2023-11-21T06:41:02;11.70;;;4.13;;
65358;SDS011;52491;45.900;6.346;2023-11-21T06:43:29;12.23;;;3.83;;
65358;SDS011;52491;45.900;6.346;2023-11-21T06:45:56;5.30;;;3.42;;
65358;SDS011;52491;45.900;6.346;2023-11-21T06:48:22;6.22;;;3.03;;
65358;SDS011;52491;45.900;6.346;2023-11-21T06:50:47;5.65;;;3.08;;
65358;SDS011;52491;45.900;6.346;2023-11-21T06:53:13;5.22;;;2.65;;
65358;SDS011;52491;45.900;6.346;2023-11-21T06:55:39;6.80;;;2.80;;
65358;SDS011;52491;45.900;6.346;2023-11-21T06:58:05;7.60;;;2.75;;
65358;SDS011;52491;45.900;6.346;2023-11-21T07:00:30;3.22;;;2.65;;
65358;SDS011;52491;45.900;6.346;2023-11-21T07:02:56;6.93;;;2.35;;
65358;SDS011;52491;45.900;6.346;2023-11-21T07:05:21;4.55;;;2.45;;
65358;SDS011;52491;45.900;6.346;2023-11-21T07:07:48;5.00;;;3.08;;
65358;SDS011;52491;45.900;6.346;2023-11-21T07:10:14;4.28;;;2.20;;
65358;SDS011;52491;45.900;6.346;2023-11-21T07:12:40;5.43;;;3.17;;
65358;SDS011;52491;45.900;6.346;2023-11-21T07:15:06;7.43;;;2.78;;
65358;SDS011;52491;45.900;6.346;2023-11-21T07:17:37;3.35;;;2.40;;
65358;SDS011;52491;45.900;6.346;2023-11-21T07:20:03;5.35;;;3.05;;
65358;SDS011;52491;45.900;6.346;2023-11-21T07:22:29;5.63;;;2.30;;
65358;SDS011;52491;45.900;6.346;2023-11-21T07:24:55;3.80;;;2.92;;
65358;SDS011;52491;45.900;6.346;2023-11-21T07:27:21;5.50;;;2.97;;
65358;SDS011;52491;45.900;6.346;2023-11-21T07:29:47;4.20;;;2.67;;
65358;SDS011;52491;45.900;6.346;2023-11-21T07:32:13;8.02;;;3.22;;
65358;SDS011;52491;45.900;6.346;2023-11-21T07:34:40;5.07;;;2.80;;
65358;SDS011;52491;45.900;6.346;2023-11-21T07:37:06;3.17;;;2.55;;
65358;SDS011;52491;45.900;6.346;2023-11-21T07:39:34;5.72;;;3.00;;
65358;SDS011;52491;45.900;6.346;2023-11-21T07:42:00;4.53;;;2.72;;
65358;SDS011;52491;45.900;6.346;2023-11-21T07:44:27;4.78;;;2.28;;
65358;SDS011;52491;45.900;6.346;2023-11-21T07:46:54;4.38;;;2.80;;
65358;SDS011;52491;45.900;6.346;2023-11-21T07:49:23;3.78;;;2.67;;
65358;SDS011;52491;45.900;6.346;2023-11-21T07:51:49;2.85;;;2.10;;
65358;SDS011;52491;45.900;6.346;2023-11-21T07:54:14;4.57;;;2.20;;
65358;SDS011;52491;45.900;6.346;2023-11-21T07:56:41;6.85;;;2.92;;
65358;SDS011;52491;45.900;6.346;2023-11-21T07:59:06;3.70;;;2.60;;
65358;SDS011;52491;45.900;6.346;2023-11-21T08:01:32;3.47;;;2.50;;
65358;SDS011;52491;45.900;6.346;2023-11-21T08:03:58;4.63;;;2.10;;
65358;SDS011;52491;45.900;6.346;2023-11-21T08:06:26;3.40;;;2.40;;
65358;SDS011;52491;45.900;6.346;2023-11-21T08:08:53;2.75;;;2.08;;
65358;SDS011;52491;45.900;6.346;2023-11-21T08:11:19;4.18;;;2.60;;
65358;SDS011;52491;45.900;6.346;2023-11-21T08:13:44;4.30;;;2.42;;
65358;SDS011;52491;45.900;6.346;2023-11-21T08:16:11;2.78;;;2.17;;
65358;SDS011;52491;45.900;6.346;2023-11-21T08:18:37;2.70;;;2.25;;
65358;SDS011;52491;45.900;6.346;2023-11-21T08:21:03;3.42;;;2.58;;
65358;SDS011;52491;45.900;6.346;2023-11-21T08:23:30;3.50;;;2.30;;
65358;SDS011;52491;45.900;6.346;2023-11-21T08:25:55;3.75;;;2.30;;
65358;SDS011;52491;45.900;6.346;2023-11-21T08:28:20;7.50;;;2.88;;
65358;SDS011;52491;45.900;6.346;2023-11-21T08:30:51;3.10;;;2.20;;
65358;SDS011;52491;45.900;6.346;2023-11-21T08:33:17;3.78;;;2.60;;
65358;SDS011;52491;45.900;6.346;2023-11-21T08:35:43;3.33;;;2.15;;
65358;SDS011;52491;45.900;6.346;2023-11-21T08:38:10;4.75;;;2.60;;
65358;SDS011;52491;45.900;6.346;2023-11-21T08:40:37;1.95;;;1.75;;
65358;SDS011;52491;45.900;6.346;2023-11-21T08:43:03;4.45;;;2.28;;
65358;SDS011;52491;45.900;6.346;2023-11-21T08:45:29;2.95;;;2.25;;
65358;SDS011;52491;45.900;6.346;2023-11-21T08:47:56;3.33;;;2.10;;
65358;SDS011;52491;45.900;6.346;2023-11-21T08:50:21;3.17;;;2.60;;
65358;SDS011;52491;45.900;6.346;2023-11-21T08:52:47;2.30;;;2.10;;
65358;SDS011;52491;45.900;6.346;2023-11-21T08:55:13;3.58;;;2.72;;
65358;SDS011;52491;45.900;6.346;2023-11-21T08:57:39;3.38;;;2.00;;
65358;SDS011;52491;45.900;6.346;2023-11-21T09:00:07;3.10;;;2.03;;
65358;SDS011;52491;45.900;6.346;2023-11-21T09:02:36;2.47;;;2.25;;
65358;SDS011;52491;45.900;6.346;2023-11-21T09:05:11;3.30;;;2.28;;
65358;SDS011;52491;45.900;6.346;2023-11-21T09:07:39;2.63;;;2.10;;
65358;SDS011;52491;45.900;6.346;2023-11-21T09:10:08;5.25;;;2.25;;
65358;SDS011;52491;45.900;6.346;2023-11-21T09:12:34;2.80;;;2.35;;
65358;SDS011;52491;45.900;6.346;2023-11-21T09:15:05;3.67;;;2.75;;
65358;SDS011;52491;45.900;6.346;2023-11-21T09:17:32;3.85;;;2.20;;
65358;SDS011;52491;45.900;6.346;2023-11-21T09:20:02;3.03;;;2.08;;
65358;SDS011;52491;45.900;6.346;2023-11-21T09:22:30;3.67;;;1.95;;
65358;SDS011;52491;45.900;6.346;2023-11-21T09:24:56;2.47;;;2.10;;
65358;SDS011;52491;45.900;6.346;2023-11-21T09:27:22;2.33;;;1.88;;
65358;SDS011;52491;45.900;6.346;2023-11-21T09:29:48;2.78;;;2.03;;
65358;SDS011;52491;45.900;6.346;2023-11-21T09:32:14;2.58;;;2.15;;
65358;SDS011;52491;45.900;6.346;2023-11-21T09:34:43;2.30;;;1.98;;
65358;SDS011;52491;45.900;6.346;2023-11-21T09:37:09;3.30;;;2.60;;
65358;SDS011;52491;45.900;6.346;2023-11-21T09:39:34;2.17;;;1.63;;
65358;SDS011;52491;45.900;6.346;2023-11-21T09:44:52;6.80;;;2.08;;
65358;SDS011;52491;45.900;6.346;2023-11-21T09:47:26;2.85;;;2.03;;
65358;SDS011;52491;45.900;6.346;2023-11-21T09:49:53;3.70;;;2.17;;
65358;SDS011;52491;45.900;6.346;2023-11-21T09:52:25;2.67;;;1.95;;
65358;SDS011;52491;45.900;6.346;2023-11-21T09:54:52;3.47;;;2.10;;
65358;SDS011;52491;45.900;6.346;2023-11-21T09:57:19;3.63;;;1.95;;
65358;SDS011;52491;45.900;6.346;2023-11-21T09:59:51;3.08;;;2.05;;
65358;SDS011;52491;45.900;6.346;2023-11-21T10:02:27;2.17;;;1.92;;
65358;SDS011;52491;45.900;6.346;2023-11-21T10:04:55;3.15;;;2.22;;
65358;SDS011;52491;45.900;6.346;2023-11-21T10:07:21;2.83;;;2.15;;
65358;SDS011;52491;45.900;6.346;2023-11-21T10:09:47;2.63;;;2.38;;
65358;SDS011;52491;45.900;6.346;2023-11-21T10:12:14;2.85;;;2.40;;
65358;SDS011;52491;45.900;6.346;2023-11-21T10:14:41;2.17;;;1.98;;
65358;SDS011;52491;45.900;6.346;2023-11-21T10:17:10;4.13;;;2.13;;
65358;SDS011;52491;45.900;6.346;2023-11-21T10:19:37;3.45;;;2.25;;
65358;SDS011;52491;45.900;6.346;2023-11-21T10:22:04;2.05;;;1.70;;
65358;SDS011;52491;45.900;6.346;2023-11-21T10:24:32;3.00;;;1.75;;
65358;SDS011;52491;45.900;6.346;2023-11-21T10:26:58;2.13;;;1.58;;
65358;SDS011;52491;45.900;6.346;2023-11-21T10:29:28;4.60;;;2.08;;
65358;SDS011;52491;45.900;6.346;2023-11-21T10:31:55;2.78;;;1.60;;
65358;SDS011;52491;45.900;6.346;2023-11-21T10:34:22;2.88;;;2.13;;
65358;SDS011;52491;45.900;6.346;2023-11-21T10:36:48;3.25;;;2.20;;
65358;SDS011;52491;45.900;6.346;2023-11-21T10:39:14;2.28;;;1.98;;
65358;SDS011;52491;45.900;6.346;2023-11-21T10:41:44;3.65;;;1.70;;
65358;SDS011;52491;45.900;6.346;2023-11-21T10:44:14;1.95;;;1.70;;
65358;SDS011;52491;45.900;6.346;2023-11-21T10:46:46;2.10;;;1.90;;
65358;SDS011;52491;45.900;6.346;2023-11-21T10:49:18;1.95;;;1.73;;
65358;SDS011;52491;45.900;6.346;2023-11-21T10:51:45;1.80;;;1.42;;
65358;SDS011;52491;45.900;6.346;2023-11-21T10:54:11;2.50;;;1.80;;
65358;SDS011;52491;45.900;6.346;2023-11-21T10:56:37;3.75;;;1.70;;
65358;SDS011;52491;45.900;6.346;2023-11-21T10:59:08;1.88;;;1.55;;
65358;SDS011;52491;45.900;6.346;2023-11-21T11:01:40;2.25;;;1.85;;
65358;SDS011;52491;45.900;6.346;2023-11-21T11:04:08;1.70;;;1.30;;
65358;SDS011;52491;45.900;6.346;2023-11-21T11:06:40;2.63;;;2.05;;
65358;SDS011;52491;45.900;6.346;2023-11-21T11:09:07;3.08;;;1.90;;
65358;SDS011;52491;45.900;6.346;2023-11-21T11:11:34;2.08;;;1.83;;
65358;SDS011;52491;45.900;6.346;2023-11-21T11:14:01;2.13;;;1.70;;
65358;SDS011;52491;45.900;6.346;2023-11-21T11:16:28;2.22;;;1.40;;
65358;SDS011;52491;45.900;6.346;2023-11-21T11:18:54;4.05;;;1.55;;
65358;SDS011;52491;45.900;6.346;2023-11-21T11:21:27;2.30;;;1.85;;
65358;SDS011;52491;45.900;6.346;2023-11-21T11:24:25;2.33;;;1.17;;
65358;SDS011;52491;45.900;6.346;2023-11-21T11:30:00;3.17;;;1.50;;
65358;SDS011;52491;45.900;6.346;2023-11-21T11:32:40;3.83;;;1.75;;
65358;SDS011;52491;45.900;6.346;2023-11-21T11:35:33;3.38;;;1.33;;
65358;SDS011;52491;45.900;6.346;2023-11-21T11:38:10;2.08;;;1.40;;
65358;SDS011;52491;45.900;6.346;2023-11-21T11:40:44;12.82;;;6.20;;
65358;SDS011;52491;45.900;6.346;2023-11-21T11:43:11;21.17;;;7.18;;
65358;SDS011;52491;45.900;6.346;2023-11-21T11:45:37;20.65;;;7.28;;
65358;SDS011;52491;45.900;6.346;2023-11-21T11:48:06;10.15;;;3.78;;
65358;SDS011;52491;45.900;6.346;2023-11-21T11:50:32;8.45;;;3.63;;
65358;SDS011;52491;45.900;6.346;2023-11-21T11:53:14;11.75;;;3.20;;
65358;SDS011;52491;45.900;6.346;2023-11-21T11:55:40;9.43;;;2.47;;
65358;SDS011;52491;45.900;6.346;2023-11-21T11:58:06;12.35;;;3.08;;
65358;SDS011;52491;45.900;6.346;2023-11-21T12:00:35;8.57;;;3.60;;
65358;SDS011;52491;45.900;6.346;2023-11-21T12:03:06;18.70;;;3.78;;
65358;SDS011;52491;45.900;6.346;2023-11-21T12:05:34;11.50;;;3.85;;
65358;SDS011;52491;45.900;6.346;2023-11-21T12:08:09;13.70;;;4.43;;
65358;SDS011;52491;45.900;6.346;2023-11-21T12:10:37;15.90;;;4.18;;
65358;SDS011;52491;45.900;6.346;2023-11-21T12:13:07;17.52;;;3.70;;
65358;SDS011;52491;45.900;6.346;2023-11-21T12:15:35;20.05;;;4.93;;
65358;SDS011;52491;45.900;6.346;2023-11-21T12:18:02;10.10;;;3.50;;
65358;SDS011;52491;45.900;6.346;2023-11-21T12:20:28;9.65;;;4.55;;
65358;SDS011;52491;45.900;6.346;2023-11-21T12:22:59;12.43;;;3.78;;
65358;SDS011;52491;45.900;6.346;2023-11-21T12:25:26;11.15;;;3.03;;
65358;SDS011;52491;45.900;6.346;2023-11-21T12:28:00;13.35;;;3.13;;
65358;SDS011;52491;45.900;6.346;2023-11-21T12:30:28;16.00;;;3.88;;
65358;SDS011;52491;45.900;6.346;2023-11-21T12:32:59;10.32;;;3.60;;
65358;SDS011;52491;45.900;6.346;2023-11-21T12:35:28;14.20;;;4.47;;
65358;SDS011;52491;45.900;6.346;2023-11-21T12:37:56;13.27;;;4.10;;
65358;SDS011;52491;45.900;6.346;2023-11-21T12:40:24;9.75;;;3.65;;
65358;SDS011;52491;45.900;6.346;2023-11-21T12:42:52;9.18;;;3.78;;
65358;SDS011;52491;45.900;6.346;2023-11-21T12:45:20;8.77;;;3.03;;
65358;SDS011;52491;45.900;6.346;2023-11-21T12:47:46;11.00;;;3.00;;
65358;SDS011;52491;45.900;6.346;2023-11-21T12:50:19;8.15;;;3.20;;
65358;SDS011;52491;45.900;6.346;2023-11-21T12:52:49;5.75;;;2.67;;
65358;SDS011;52491;45.900;6.346;2023-11-21T12:55:20;9.02;;;2.78;;
65358;SDS011;52491;45.900;6.346;2023-11-21T12:57:49;6.55;;;2.95;;
65358;SDS011;52491;45.900;6.346;2023-11-21T13:00:17;7.93;;;3.22;;
65358;SDS011;52491;45.900;6.346;2023-11-21T13:02:57;5.70;;;2.83;;
65358;SDS011;52491;45.900;6.346;2023-11-21T13:05:30;8.52;;;3.65;;
65358;SDS011;52491;45.900;6.346;2023-11-21T13:07:57;8.00;;;2.80;;
65358;SDS011;52491;45.900;6.346;2023-11-21T13:10:25;6.18;;;3.10;;
65358;SDS011;52491;45.900;6.346;2023-11-21T13:12:54;8.75;;;2.78;;
65358;SDS011;52491;45.900;6.346;2023-11-21T13:15:23;9.82;;;3.30;;
65358;SDS011;52491;45.900;6.346;2023-11-21T13:17:50;4.68;;;2.22;;
65358;SDS011;52491;45.900;6.346;2023-11-21T13:20:16;9.38;;;3.05;;
65358;SDS011;52491;45.900;6.346;2023-11-21T13:23:00;8.05;;;3.22;;
65358;SDS011;52491;45.900;6.346;2023-11-21T13:25:35;5.93;;;1.95;;
65358;SDS011;52491;45.900;6.346;2023-11-21T13:28:02;8.63;;;2.97;;
65358;SDS011;52491;45.900;6.346;2023-11-21T13:30:27;7.40;;;2.20;;
65358;SDS011;52491;45.900;6.346;2023-11-21T13:32:58;5.55;;;2.33;;
65358;SDS011;52491;45.900;6.346;2023-11-21T13:35:29;11.25;;;3.17;;
65358;SDS011;52491;45.900;6.346;2023-11-21T13:38:09;4.95;;;2.47;;
65358;SDS011;52491;45.900;6.346;2023-11-21T13:40:37;9.50;;;2.55;;
65358;SDS011;52491;45.900;6.346;2023-11-21T13:43:12;7.43;;;2.35;;
65358;SDS011;52491;45.900;6.346;2023-11-21T13:45:39;5.38;;;2.42;;
65358;SDS011;52491;45.900;6.346;2023-11-21T13:48:06;5.03;;;2.28;;
65358;SDS011;52491;45.900;6.346;2023-11-21T13:50:45;4.95;;;2.30;;
65358;SDS011;52491;45.900;6.346;2023-11-21T13:53:24;5.25;;;2.65;;
65358;SDS011;52491;45.900;6.346;2023-11-21T13:55:50;3.50;;;1.92;;
65358;SDS011;52491;45.900;6.346;2023-11-21T13:58:25;6.18;;;2.20;;
65358;SDS011;52491;45.900;6.346;2023-11-21T14:01:20;4.45;;;2.28;;
65358;SDS011;52491;45.900;6.346;2023-11-21T14:03:58;6.25;;;2.55;;
65358;SDS011;52491;45.900;6.346;2023-11-21T14:06:47;3.75;;;1.98;;
65358;SDS011;52491;45.900;6.346;2023-11-21T14:09:19;4.13;;;1.73;;
65358;SDS011;52491;45.900;6.346;2023-11-21T14:11:53;3.67;;;1.58;;
65358;SDS011;52491;45.900;6.346;2023-11-21T14:14:21;5.53;;;2.17;;
65358;SDS011;52491;45.900;6.346;2023-11-21T14:16:49;3.78;;;1.50;;
65358;SDS011;52491;45.900;6.346;2023-11-21T14:19:16;5.78;;;2.00;;
65358;SDS011;52491;45.900;6.346;2023-11-21T14:21:42;4.05;;;1.60;;
65358;SDS011;52491;45.900;6.346;2023-11-21T14:24:08;4.38;;;2.25;;
65358;SDS011;52491;45.900;6.346;2023-11-21T14:26:35;4.20;;;1.65;;
65358;SDS011;52491;45.900;6.346;2023-11-21T14:29:00;6.38;;;2.30;;
65358;SDS011;52491;45.900;6.346;2023-11-21T14:31:27;3.75;;;2.08;;
65358;SDS011;52491;45.900;6.346;2023-11-21T14:33:55;3.92;;;2.10;;
65358;SDS011;52491;45.900;6.346;2023-11-21T14:36:22;3.72;;;1.83;;
65358;SDS011;52491;45.900;6.346;2023-11-21T14:38:49;5.10;;;2.08;;
65358;SDS011;52491;45.900;6.346;2023-11-21T14:41:14;5.20;;;1.65;;
65358;SDS011;52491;45.900;6.346;2023-11-21T14:43:41;3.33;;;1.80;;
65358;SDS011;52491;45.900;6.346;2023-11-21T14:46:08;5.50;;;1.52;;
65358;SDS011;52491;45.900;6.346;2023-11-21T14:48:35;4.88;;;1.95;;
65358;SDS011;52491;45.900;6.346;2023-11-21T14:51:10;2.28;;;1.60;;
65358;SDS011;52491;45.900;6.346;2023-11-21T14:53:44;2.90;;;2.00;;